Time;durP1;ratioP1;P1;durP2;ratioP2;P2;SDS_P1;SDS_P2;PMS_P1;PMS_P2;Temp;Humidity;BMP_temperature;BMP_pressure;BME280_temperature;BME280_humidity;BME280_pressure;Samples;Min_cycle;Max_cycle;Signal;HPM_P1;HPM_P2
2023/03/02 00:02:28;;;;;;;1.40;1.40;;;;;;;19.54;30.24;99044.28;1881502;75;28105;-55
2023/03/02 00:05:17;;;;;;;1.55;1.55;;;;;;;19.53;30.23;99048.09;1832004;76;28257;-58
2023/03/02 00:08:07;;;;;;;2.17;1.90;;;;;;;19.53;30.24;99047.25;1866345;76;28230;-55
2023/03/02 00:10:59;;;;;;;1.67;1.57;;;;;;;19.54;30.27;99049.73;1867292;76;28252;-54
2023/03/02 00:13:48;;;;;;;1.72;1.62;;;;;;;19.56;30.21;99049.50;1866337;76;28232;-55
2023/03/02 00:16:36;;;;;;;1.60;1.50;;;;;;;19.56;30.24;99046.77;1867076;76;28122;-56
2023/03/02 00:19:25;;;;;;;1.60;1.50;;;;;;;19.55;30.26;99049.21;1867174;76;28183;-55
2023/03/02 00:22:13;;;;;;;1.80;1.70;;;;;;;19.56;30.23;99048.13;1867549;76;28191;-55
2023/03/02 00:25:02;;;;;;;1.60;1.50;;;;;;;19.53;30.28;99049.97;1866059;76;28215;-57
2023/03/02 00:27:50;;;;;;;1.60;1.50;;;;;;;19.53;30.28;99049.97;1865958;76;28249;-53
2023/03/02 00:30:39;;;;;;;1.60;1.60;;;;;;;19.52;30.28;99051.86;1864312;76;28220;-57
2023/03/02 00:33:27;;;;;;;1.43;1.43;;;;;;;19.54;30.29;99066.08;1874419;75;28114;-54
2023/03/02 00:36:19;;;;;;;1.50;1.50;;;;;;;19.55;30.27;99062.83;1878462;74;28173;-55
2023/03/02 00:39:08;;;;;;;1.32;1.32;;;;;;;19.54;30.30;99063.35;1876834;75;28105;-56
2023/03/02 00:41:56;;;;;;;1.80;1.70;;;;;;;19.53;30.28;99059.50;1876652;75;28982;-55
2023/03/02 00:44:44;;;;;;;1.50;1.40;;;;;;;19.54;30.25;99063.87;1898561;75;28693;-54
2023/03/02 00:47:37;;;;;;;1.75;1.65;;;;;;;19.53;30.28;99070.40;1888239;75;28168;-55
2023/03/02 00:50:26;;;;;;;1.90;1.70;;;;;;;19.52;30.30;99070.08;1868596;76;28320;-56
2023/03/02 00:53:14;;;;;;;1.67;1.60;;;;;;;19.52;30.33;99066.84;1865959;76;28233;-53
2023/03/02 00:56:03;;;;;;;1.60;1.50;;;;;;;19.53;30.29;99066.31;1867401;76;28095;-57
2023/03/02 00:58:53;;;;;;;1.53;1.43;;;;;;;19.54;30.30;99061.16;1887870;75;28182;-55
2023/03/02 01:01:42;;;;;;;1.50;1.40;;;;;;;19.53;30.27;99063.06;1892251;75;28185;-56
2023/03/02 01:04:37;;;;;;;1.70;1.60;;;;;;;19.52;30.29;99059.19;1878263;75;28237;-52
2023/03/02 01:07:27;;;;;;;1.62;1.52;;;;;;;19.53;30.31;99069.88;1865842;76;28209;-55
2023/03/02 01:10:16;;;;;;;1.60;1.50;;;;;;;19.53;30.29;99062.23;1897869;75;28261;-55
2023/03/02 01:13:04;;;;;;;1.50;1.50;;;;;;;19.51;30.29;99060.27;1873079;75;28198;-56
2023/03/02 01:16:04;;;;;;;1.70;1.60;;;;;;;19.51;30.28;99069.24;1869352;76;28128;-54
2023/03/02 01:18:52;;;;;;;1.60;1.50;;;;;;;19.54;30.32;99070.16;1866065;76;28216;-55
2023/03/02 01:21:42;;;;;;;1.60;1.50;;;;;;;19.53;30.31;99067.16;1867163;76;28123;-52
2023/03/02 01:24:31;;;;;;;1.82;1.72;;;;;;;19.55;30.31;99066.92;1874041;75;28207;-53
2023/03/02 01:27:20;;;;;;;1.90;1.80;;;;;;;19.52;30.32;99066.00;1877360;75;28294;-55
2023/03/02 01:30:10;;;;;;;1.60;1.60;;;;;;;19.52;30.32;99060.55;1866027;76;28298;-56
2023/03/02 01:32:58;;;;;;;1.55;1.50;;;;;;;19.53;30.35;99059.50;1868970;76;28298;-56
2023/03/02 01:35:47;;;;;;;1.57;1.50;;;;;;;19.52;30.34;99060.03;1866694;76;28254;-55
2023/03/02 01:38:35;;;;;;;1.70;1.60;;;;;;;19.53;30.27;99054.89;1858325;76;28194;-56
2023/03/02 01:41:24;;;;;;;1.62;1.57;;;;;;;19.55;30.32;99054.66;1868844;76;28208;-54
2023/03/02 01:44:38;;;;;;;1.60;1.50;;;;;;;19.54;30.33;99050.25;1868940;76;28604;-56
2023/03/02 01:47:36;;;;;;;1.75;1.65;;;;;;;19.50;30.33;99038.99;1876439;75;28219;-56
2023/03/02 01:50:27;;;;;;;1.62;1.62;;;;;;;19.49;30.37;99045.48;1879689;75;28238;-56
2023/03/02 01:53:18;;;;;;;1.80;1.70;;;;;;;19.48;30.39;99045.72;1879379;75;28723;-55
2023/03/02 01:56:07;;;;;;;1.90;1.70;;;;;;;19.50;30.35;99039.52;1857037;77;28247;-57
2023/03/02 01:59:01;;;;;;;1.70;1.60;;;;;;;19.51;30.33;99037.91;1857248;77;28255;-54
2023/03/02 02:01:53;;;;;;;1.47;1.47;;;;;;;19.51;30.35;99034.38;1890914;75;28261;-57
2023/03/02 02:04:44;;;;;;;1.40;1.40;;;;;;;19.50;30.38;99026.73;1869078;76;28612;-56
2023/03/02 02:07:33;;;;;;;1.60;1.50;;;;;;;19.50;30.37;99032.70;1874801;75;28107;-55
2023/03/02 02:10:22;;;;;;;1.62;1.52;;;;;;;19.51;30.35;99022.12;1877812;75;28186;-58
2023/03/02 02:13:11;;;;;;;1.60;1.50;;;;;;;19.50;30.34;99008.19;1878601;75;28185;-55
2023/03/02 02:15:59;;;;;;;1.70;1.60;;;;;;;19.52;30.37;99007.43;1879124;75;28274;-60
2023/03/02 02:18:47;;;;;;;1.80;1.70;;;;;;;19.51;30.32;99003.87;1873236;75;28328;-55
2023/03/02 02:21:36;;;;;;;1.60;1.50;;;;;;;19.51;30.33;99002.50;1879277;75;28138;-55
2023/03/02 02:24:31;;;;;;;1.65;1.55;;;;;;;19.52;30.32;99003.34;1874978;75;28628;-54
2023/03/02 02:27:19;;;;;;;1.80;1.70;;;;;;;19.51;30.32;99012.04;1868864;76;28223;-56
2023/03/02 02:30:10;;;;;;;1.60;1.50;;;;;;;19.51;30.34;99005.23;1857035;77;28356;-57
2023/03/02 02:32:59;;;;;;;1.70;1.60;;;;;;;19.52;30.32;99002.82;1879915;75;28109;-54
2023/03/02 02:35:49;;;;;;;1.70;1.60;;;;;;;19.50;30.34;99010.91;1862119;75;28237;-56
2023/03/02 02:38:39;;;;;;;1.60;1.50;;;;;;;19.50;30.30;99013.12;1873102;76;28267;-56
2023/03/02 02:41:31;;;;;;;1.90;1.70;;;;;;;19.52;30.35;99014.23;1877788;76;28310;-55
2023/03/02 02:44:20;;;;;;;1.80;1.70;;;;;;;19.49;30.36;99016.05;1878116;76;28317;-55
2023/03/02 02:47:18;;;;;;;1.90;1.70;;;;;;;19.47;30.38;99003.19;1878009;76;28379;-55
2023/03/02 02:50:08;;;;;;;1.57;1.50;;;;;;;19.48;30.38;99011.15;1902696;74;28577;-54
2023/03/02 02:53:02;;;;;;;1.67;1.57;;;;;;;19.48;30.39;99013.03;1877897;76;28231;-59
2023/03/02 02:55:54;;;;;;;1.80;1.70;;;;;;;19.49;30.38;99020.13;1878049;76;28234;-56
2023/03/02 02:58:52;;;;;;;1.42;1.42;;;;;;;19.49;30.38;99016.05;1886409;74;28864;-59
2023/03/02 03:01:41;;;;;;;2.05;1.95;;;;;;;19.47;30.40;99016.28;1906364;74;28107;-56
2023/03/02 03:04:32;;;;;;;2.65;2.45;;;;;;;19.49;30.29;99016.88;1878080;76;28618;-57
2023/03/02 03:07:23;;;;;;;2.40;2.30;;;;;;;19.49;30.23;99010.59;1878044;76;28198;-57
2023/03/02 03:10:38;;;;;;;2.37;2.17;;;;;;;19.50;30.14;99010.39;1900439;74;28243;-56
2023/03/02 03:13:26;;;;;;;3.00;2.73;;;;;;;19.49;30.08;99016.05;1878017;76;28199;-55
2023/03/02 03:16:17;;;;;;;2.83;2.62;;;;;;;19.44;30.13;99011.27;1877948;76;28207;-57
2023/03/02 03:19:11;;;;;;;2.75;2.62;;;;;;;19.45;30.07;99018.92;1878057;76;28307;-57
2023/03/02 03:22:02;;;;;;;2.37;2.20;;;;;;;19.46;30.03;99013.80;1877867;76;28253;-58
2023/03/02 03:24:53;;;;;;;2.58;2.37;;;;;;;19.46;30.02;99007.83;1854421;76;28375;-54
2023/03/02 03:27:42;;;;;;;2.50;2.30;;;;;;;19.48;30.00;99008.42;1868816;76;28261;-55
2023/03/02 03:30:31;;;;;;;2.60;2.40;;;;;;;19.47;29.93;99009.47;1869009;76;28332;-56
2023/03/02 03:33:20;;;;;;;2.92;2.72;;;;;;;19.51;29.90;99008.51;1883584;75;28105;-56
2023/03/02 03:36:09;;;;;;;2.75;2.55;;;;;;;19.51;29.88;99020.77;1835438;76;28272;-56
2023/03/02 03:38:59;;;;;;;2.70;2.50;;;;;;;19.50;29.86;99021.81;1868203;75;28145;-56
2023/03/02 03:41:48;;;;;;;2.77;2.58;;;;;;;19.48;29.81;99026.13;1868622;76;28200;-56
2023/03/02 03:44:37;;;;;;;2.85;2.65;;;;;;;19.46;29.89;99032.86;1854624;77;28477;-56
2023/03/02 03:47:26;;;;;;;3.08;2.87;;;;;;;19.48;29.83;99031.58;1855014;77;33092;-55
2023/03/02 03:50:15;;;;;;;2.75;2.55;;;;;;;19.48;29.85;99034.30;1856528;75;28228;-56
2023/03/02 03:53:04;;;;;;;2.62;2.42;;;;;;;19.49;29.81;99035.11;1867870;75;28304;-58
2023/03/02 03:55:55;;;;;;;2.37;2.20;;;;;;;19.48;29.79;99036.19;1868356;75;28231;-56
2023/03/02 03:58:43;;;;;;;3.25;2.95;;;;;;;19.49;29.78;99036.47;1877678;75;28202;-58
2023/03/02 04:01:36;;;;;;;3.10;2.80;;;;;;;19.49;29.71;99033.75;1882577;75;28602;-56
2023/03/02 04:04:28;;;;;;;2.72;2.52;;;;;;;19.47;29.72;99028.53;1868547;75;28298;-55
2023/03/02 04:07:17;;;;;;;3.50;3.20;;;;;;;19.47;29.74;99028.53;1873511;75;28202;-53
2023/03/02 04:10:08;;;;;;;2.50;2.40;;;;;;;19.48;29.70;99034.30;1849481;75;28202;-55
2023/03/02 04:12:58;;;;;;;2.83;2.62;;;;;;;19.48;29.74;99036.19;1870531;76;28172;-57
2023/03/02 04:15:47;;;;;;;3.13;2.83;;;;;;;19.48;29.67;99030.73;1854914;77;28294;-56
2023/03/02 04:18:36;;;;;;;3.12;2.60;;;;;;;19.46;29.67;99038.31;1854778;77;28186;-57
2023/03/02 04:21:25;;;;;;;2.90;2.70;;;;;;;19.47;29.66;99024.45;1884005;75;28131;-54
2023/03/02 04:24:15;;;;;;;2.90;2.60;;;;;;;19.46;29.64;99024.69;1865106;75;28198;-53
2023/03/02 04:27:04;;;;;;;2.80;2.60;;;;;;;19.46;29.60;99023.33;1886815;75;28238;-57
2023/03/02 04:29:54;;;;;;;3.25;3.02;;;;;;;19.47;29.57;99027.70;1817775;77;28269;-55
2023/03/02 04:32:43;;;;;;;3.40;2.80;;;;;;;19.45;29.60;99021.64;1874193;75;28242;-54
2023/03/02 04:35:32;;;;;;;3.17;2.87;;;;;;;19.44;29.59;99032.26;1870580;76;28196;-54
2023/03/02 04:38:22;;;;;;;2.98;2.77;;;;;;;19.45;29.58;99037.47;1871730;75;28226;-57
2023/03/02 04:41:10;;;;;;;2.77;2.58;;;;;;;19.42;29.58;99029.73;1816673;78;28387;-56
2023/03/02 04:43:59;;;;;;;2.65;2.50;;;;;;;19.45;29.58;99033.38;1836993;77;28259;-54
2023/03/02 04:46:48;;;;;;;2.98;2.75;;;;;;;19.42;29.57;99028.38;1802115;78;28389;-57
2023/03/02 04:49:37;;;;;;;2.62;2.45;;;;;;;19.43;29.61;99036.02;1792161;79;28448;-55
2023/03/02 04:52:25;;;;;;;2.67;2.47;;;;;;;19.45;29.56;99042.08;1823461;78;28324;-57
2023/03/02 04:55:17;;;;;;;3.00;2.77;;;;;;;19.42;29.59;99043.36;1842452;77;28342;-57
2023/03/02 04:58:06;;;;;;;2.83;2.62;;;;;;;19.41;29.58;99047.67;1823801;78;28887;-55
2023/03/02 05:01:00;;;;;;;2.95;2.75;;;;;;;19.40;29.61;99056.89;1822276;78;28352;-54
2023/03/02 05:03:45;;;;;;;3.37;2.95;;;;;;;19.38;29.60;99052.20;1837189;77;28349;-56
2023/03/02 05:06:33;;;;;;;3.00;2.70;;;;;;;19.40;29.60;99056.89;1893504;75;28112;-56
2023/03/02 05:09:27;;;;;;;2.75;2.55;;;;;;;19.40;29.61;99056.89;1876740;75;28241;-54
2023/03/02 05:12:12;;;;;;;3.15;2.95;;;;;;;19.39;29.64;99062.89;1821978;78;28746;-53
2023/03/02 05:15:00;;;;;;;3.00;2.80;;;;;;;19.39;29.59;99069.70;1812394;78;28333;-56
2023/03/02 05:17:48;;;;;;;3.50;3.20;;;;;;;19.40;29.61;99067.78;1812896;78;28244;-54
2023/03/02 05:20:38;;;;;;;2.90;2.70;;;;;;;19.40;29.58;99067.27;1822319;78;28206;-55
2023/03/02 05:23:30;;;;;;;2.67;2.47;;;;;;;19.39;29.60;99068.86;1802676;78;28273;-57
2023/03/02 05:26:17;;;;;;;2.08;1.87;;;;;;;19.38;29.81;99074.83;1878162;75;28222;-55
2023/03/02 05:29:06;;;;;;;2.10;2.00;;;;;;;19.35;29.90;99070.34;1870722;75;28307;-52
2023/03/02 05:31:54;;;;;;;2.10;2.00;;;;;;;19.37;29.91;99076.42;1871435;75;35354;-55
2023/03/02 05:34:42;;;;;;;2.25;2.08;;;;;;;19.39;29.95;99086.56;1856924;77;28153;-56
2023/03/02 05:37:31;;;;;;;2.20;2.10;;;;;;;19.39;29.97;99086.56;1890743;75;28237;-56
2023/03/02 05:40:21;;;;;;;2.37;1.92;;;;;;;19.38;29.97;99080.27;1868787;76;28157;-55
2023/03/02 05:43:13;;;;;;;2.20;2.00;;;;;;;19.37;30.01;99083.23;1857242;77;28383;-57
2023/03/02 05:46:02;;;;;;;2.37;2.20;;;;;;;19.38;30.02;99088.97;1857035;77;28181;-52
2023/03/02 05:48:51;;;;;;;1.85;1.75;;;;;;;19.35;30.08;99089.41;1897035;75;28225;-57
2023/03/02 05:51:39;;;;;;;2.02;1.92;;;;;;;19.37;30.07;99092.77;1879380;75;28265;-55
2023/03/02 05:54:28;;;;;;;2.10;2.00;;;;;;;19.37;30.07;99099.58;1868791;76;28269;-56
2023/03/02 05:57:16;;;;;;;2.00;1.90;;;;;;;19.35;30.10;99097.02;1857112;77;28239;-55
2023/03/02 06:00:05;;;;;;;1.90;1.80;;;;;;;19.33;30.14;99105.42;1868862;76;28383;-56
2023/03/02 06:02:57;;;;;;;2.10;2.00;;;;;;;19.36;30.10;99101.98;1857019;77;28164;-54
2023/03/02 06:05:51;;;;;;;2.15;2.00;;;;;;;19.36;30.11;99113.71;1872337;75;28205;-56
2023/03/02 06:08:39;;;;;;;2.17;1.90;;;;;;;19.36;30.13;99097.89;1879160;75;28380;-57
2023/03/02 06:11:25;;;;;;;1.80;1.70;;;;;;;19.36;30.16;99106.06;1868574;75;28290;-56
2023/03/02 06:14:13;;;;;;;2.00;1.90;;;;;;;19.31;30.17;99110.78;1889245;75;28160;-55
2023/03/02 06:17:02;;;;;;;2.35;2.15;;;;;;;19.32;30.21;99115.19;1868229;76;28180;-55
2023/03/02 06:19:50;;;;;;;1.90;1.80;;;;;;;19.31;30.23;99117.07;1878752;75;28249;-54
2023/03/02 06:22:44;;;;;;;2.12;2.00;;;;;;;19.35;30.17;99120.72;1868979;76;28582;-55
2023/03/02 06:25:34;;;;;;;1.90;1.80;;;;;;;19.32;30.21;99124.17;1868871;76;28199;-57
2023/03/02 06:28:24;;;;;;;1.82;1.72;;;;;;;19.32;30.22;99128.25;1852459;77;28317;-55
2023/03/02 06:31:12;;;;;;;1.90;1.80;;;;;;;19.35;30.23;99132.98;1871930;76;28346;-56
2023/03/02 06:34:01;;;;;;;2.00;1.90;;;;;;;19.35;30.22;99129.70;1868678;76;28118;-54
2023/03/02 06:36:49;;;;;;;2.02;1.92;;;;;;;19.35;30.20;99131.06;1856896;77;28199;-57
2023/03/02 06:39:37;;;;;;;2.20;2.00;;;;;;;19.36;30.23;99136.02;1868699;76;28224;-53
2023/03/02 06:42:27;;;;;;;2.10;2.00;;;;;;;19.38;30.22;99143.44;1868894;76;28244;-54
2023/03/02 06:45:16;;;;;;;1.80;1.70;;;;;;;19.35;30.24;99150.13;1869043;75;28046;-54
2023/03/02 06:48:04;;;;;;;1.87;1.77;;;;;;;19.37;30.20;99149.95;1883816;75;28267;-53
2023/03/02 06:50:53;;;;;;;2.15;1.80;;;;;;;19.35;30.26;99157.48;1890623;75;28199;-52
2023/03/02 06:53:41;;;;;;;2.05;1.85;;;;;;;19.35;30.24;99161.02;1868645;76;28240;-55
2023/03/02 06:56:29;;;;;;;1.77;1.70;;;;;;;19.36;30.28;99165.98;1868714;76;28187;-58
2023/03/02 06:59:17;;;;;;;1.90;1.80;;;;;;;19.39;30.22;99164.19;1868413;76;28161;-58
2023/03/02 07:02:06;;;;;;;1.90;1.80;;;;;;;19.37;30.26;99163.58;1890705;75;28212;-55
2023/03/02 07:04:55;;;;;;;2.00;1.85;;;;;;;19.36;30.26;99164.09;1868758;76;28183;-56
2023/03/02 07:07:43;;;;;;;1.70;1.60;;;;;;;19.36;30.25;99164.61;1868618;76;28117;-57
2023/03/02 07:10:32;;;;;;;2.15;1.70;;;;;;;19.38;30.25;99172.03;1868735;76;28302;-57
2023/03/02 07:13:20;;;;;;;2.20;2.05;;;;;;;19.37;30.26;99167.66;1876171;75;28156;-58
2023/03/02 07:16:11;;;;;;;2.00;1.90;;;;;;;19.37;30.26;99167.66;1892206;75;28176;-56
2023/03/02 07:19:00;;;;;;;1.90;1.80;;;;;;;19.36;30.24;99172.78;1887924;75;28117;-55
2023/03/02 07:21:49;;;;;;;1.90;1.80;;;;;;;19.38;30.26;99175.59;1833297;78;28342;-57
2023/03/02 07:24:37;;;;;;;2.00;1.80;;;;;;;19.42;30.25;99178.17;1868778;76;28192;-58
2023/03/02 07:27:25;;;;;;;1.80;1.70;;;;;;;19.40;30.21;99178.09;1869434;75;28223;-57
2023/03/02 07:30:14;;;;;;;2.20;2.10;;;;;;;19.40;30.30;99184.90;1884464;75;28222;-58
2023/03/02 07:33:02;;;;;;;2.08;1.98;;;;;;;19.38;30.26;99179.69;1868641;76;28241;-57
2023/03/02 07:35:51;;;;;;;2.00;1.90;;;;;;;19.39;30.30;99185.45;1868623;76;28185;-58
2023/03/02 07:38:39;;;;;;;1.90;1.80;;;;;;;19.40;30.27;99176.73;1868802;76;37291;-54
2023/03/02 07:41:27;;;;;;;2.12;1.92;;;;;;;19.41;30.26;99183.86;1868711;76;28269;-56
2023/03/02 07:44:16;;;;;;;2.10;1.90;;;;;;;19.42;30.27;99184.17;1878584;75;28239;-55
2023/03/02 07:47:05;;;;;;;2.40;1.73;;;;;;;19.42;30.27;99190.44;1864208;76;28320;-57
2023/03/02 07:49:53;;;;;;;2.20;2.00;;;;;;;19.44;30.27;99195.68;1842361;77;28273;-53
2023/03/02 07:52:42;;;;;;;1.80;1.70;;;;;;;19.43;30.27;99203.02;1842301;77;28350;-54
2023/03/02 07:55:31;;;;;;;2.00;1.90;;;;;;;19.43;30.28;99200.80;1815577;78;28277;-56
2023/03/02 07:58:19;;;;;;;1.82;1.72;;;;;;;19.40;30.28;99199.36;1842245;76;28268;-55
2023/03/02 08:01:08;;;;;;;2.02;1.92;;;;;;;19.42;30.31;99203.24;1866047;76;28307;-56
2023/03/02 08:03:56;;;;;;;2.10;1.90;;;;;;;19.42;30.29;99206.78;1854267;76;28308;-55
2023/03/02 08:06:44;;;;;;;2.10;2.00;;;;;;;19.40;30.31;99206.17;1846633;76;28328;-56
2023/03/02 08:09:33;;;;;;;1.90;1.80;;;;;;;19.42;30.30;99206.78;1842364;77;28301;-57
2023/03/02 08:12:22;;;;;;;2.10;2.00;;;;;;;19.43;30.31;99204.89;1842470;77;28339;-56
2023/03/02 08:15:12;;;;;;;1.72;1.62;;;;;;;19.40;30.30;99205.33;1842616;77;32308;-56
2023/03/02 08:18:01;;;;;;;1.90;1.80;;;;;;;19.44;30.30;99200.58;1863446;76;28273;-55
2023/03/02 08:20:49;;;;;;;1.90;1.80;;;;;;;19.43;30.33;99207.62;1842701;77;31526;-57
2023/03/02 08:23:37;;;;;;;2.62;1.92;;;;;;;19.44;30.31;99203.85;1842514;77;27928;-56
2023/03/02 08:26:26;;;;;;;2.77;2.00;;;;;;;19.43;30.31;99208.45;1863880;76;29503;-57
2023/03/02 08:29:14;;;;;;;1.70;1.60;;;;;;;19.44;30.32;99205.21;1842400;77;28359;-55
2023/03/02 08:32:03;;;;;;;2.00;1.90;;;;;;;19.44;30.33;99207.94;1842615;77;28276;-61
2023/03/02 08:34:51;;;;;;;2.03;1.93;;;;;;;19.44;30.34;99207.94;1842630;77;28199;-55
2023/03/02 08:37:40;;;;;;;1.85;1.75;;;;;;;19.44;30.33;99201.94;1850736;76;28194;-55
2023/03/02 08:40:28;;;;;;;1.82;1.72;;;;;;;19.45;30.34;99201.41;1850406;76;28327;-55
2023/03/02 08:43:17;;;;;;;2.20;2.10;;;;;;;19.45;30.32;99198.69;1842667;77;28665;-56
2023/03/02 08:46:06;;;;;;;2.02;1.92;;;;;;;19.45;30.33;99201.41;1834355;77;28395;-57
2023/03/02 08:48:54;;;;;;;1.90;1.80;;;;;;;19.45;30.32;99195.45;1867588;76;28270;-57
2023/03/02 08:51:44;;;;;;;2.10;1.90;;;;;;;19.45;30.34;99196.81;1889348;75;28109;-57
2023/03/02 08:54:33;;;;;;;2.10;1.90;;;;;;;19.46;30.35;99199.02;1849917;76;28277;-55
2023/03/02 08:57:21;;;;;;;2.10;1.90;;;;;;;19.47;30.32;99194.70;1889862;75;28229;-57
2023/03/02 09:00:13;;;;;;;1.90;1.80;;;;;;;19.46;30.34;99197.66;1869040;76;28341;-58
2023/03/02 09:03:01;;;;;;;1.90;1.80;;;;;;;19.45;30.35;99200.89;1890492;75;28248;-55
2023/03/02 09:05:50;;;;;;;2.30;1.95;;;;;;;19.48;30.35;99199.63;1869024;76;28273;-58
2023/03/02 09:08:39;;;;;;;1.95;1.85;;;;;;;19.49;30.33;99197.19;1869017;76;28656;-53
2023/03/02 09:11:28;;;;;;;2.10;1.90;;;;;;;19.49;30.35;99195.83;1869103;76;35133;-56
2023/03/02 09:14:16;;;;;;;2.27;2.10;;;;;;;19.47;30.38;99200.66;1869138;76;28202;-60
2023/03/02 09:17:05;;;;;;;2.10;1.90;;;;;;;19.48;30.37;99199.63;1884045;75;28164;-54
2023/03/02 09:19:53;;;;;;;2.20;2.10;;;;;;;19.50;30.35;99198.87;1879726;75;28146;-55
2023/03/02 09:22:47;;;;;;;2.25;2.05;;;;;;;19.52;30.37;99206.29;1876124;75;28191;-56
2023/03/02 09:25:32;;;;;;;2.20;2.10;;;;;;;19.52;30.32;99203.56;1869095;76;28178;-57
2023/03/02 09:28:20;;;;;;;2.45;2.30;;;;;;;19.52;30.35;99204.92;1868871;76;28234;-57
2023/03/02 09:31:09;;;;;;;2.17;2.08;;;;;;;19.50;30.33;99206.52;1890665;75;28247;-56
2023/03/02 09:33:57;;;;;;;2.20;2.10;;;;;;;19.49;30.35;99201.27;1890447;75;28198;-57
2023/03/02 09:36:46;;;;;;;2.50;2.30;;;;;;;19.50;30.35;99213.33;1869121;76;28246;-56
2023/03/02 09:39:34;;;;;;;2.47;2.27;;;;;;;19.52;30.37;99214.46;1869259;76;28179;-57
2023/03/02 09:42:38;;;;;;;2.47;2.27;;;;;;;19.52;30.36;99224.00;1890653;75;28324;-58
2023/03/02 09:45:32;;;;;;;2.58;2.37;;;;;;;19.51;30.37;99219.06;1866671;76;28223;-54
2023/03/02 09:48:29;;;;;;;2.72;2.50;;;;;;;19.49;30.40;99217.62;1868742;76;28285;-58
2023/03/02 09:51:29;;;;;;;2.60;2.40;;;;;;;19.51;30.35;99216.34;1873737;75;28117;-55
2023/03/02 09:54:20;;;;;;;2.63;2.43;;;;;;;19.50;30.38;99215.22;1868862;76;28215;-57
2023/03/02 09:57:20;;;;;;;3.00;2.67;;;;;;;19.52;30.36;99210.38;1866824;76;28234;-54
2023/03/02 10:00:21;;;;;;;2.70;2.50;;;;;;;19.52;30.38;99209.02;1876463;75;28088;-57
2023/03/02 10:03:21;;;;;;;2.87;2.67;;;;;;;19.51;30.36;99203.27;1867258;75;28255;-55
2023/03/02 10:06:10;;;;;;;3.93;2.80;;;;;;;19.50;30.41;99202.95;1868780;75;28321;-55
2023/03/02 10:08:59;;;;;;;2.77;2.52;;;;;;;19.52;30.41;99211.73;1868837;76;28152;-57
2023/03/02 10:12:06;;;;;;;2.50;2.40;;;;;;;19.53;30.39;99210.70;1878323;75;28284;-56
2023/03/02 10:15:16;;;;;;;2.98;2.75;;;;;;;19.53;30.41;99205.25;1868814;76;28125;-56
2023/03/02 10:18:39;;;;;;;3.70;2.70;;;;;;;19.51;30.38;99198.64;1865844;75;28195;-56
2023/03/02 10:21:30;;;;;;;3.40;3.10;;;;;;;19.51;30.43;99203.27;1879574;75;28217;-55
2023/03/02 10:24:40;;;;;;;4.97;3.10;;;;;;;19.51;30.46;99211.45;1867243;75;28371;-55
2023/03/02 10:27:34;;;;;;;3.33;2.98;;;;;;;19.50;30.42;99205.68;1830426;77;28314;-56
2023/03/02 10:30:26;;;;;;;3.87;3.05;;;;;;;19.51;30.45;99208.17;1794596;79;28726;-57
2023/03/02 10:33:21;;;;;;;4.08;3.05;;;;;;;19.51;30.42;99205.45;1804550;78;28299;-57
2023/03/02 10:36:27;;;;;;;5.08;3.47;;;;;;;19.55;30.41;99205.33;1792062;78;32436;-60
2023/03/02 10:39:17;;;;;;;3.40;3.10;;;;;;;19.56;30.37;99199.33;1827914;77;28271;-58
2023/03/02 10:42:08;;;;;;;4.03;3.62;;;;;;;19.55;30.38;99189.51;1815023;78;28343;-55
2023/03/02 10:45:00;;;;;;;4.62;3.55;;;;;;;19.57;30.36;99190.12;1840110;77;34166;-56
2023/03/02 10:47:52;;;;;;;3.50;3.20;;;;;;;19.58;30.35;99190.44;1820383;77;38770;-54
2023/03/02 10:50:42;;;;;;;3.52;3.22;;;;;;;19.56;30.36;99188.44;1883650;74;28296;-55
2023/03/02 10:53:30;;;;;;;5.25;3.40;;;;;;;19.59;30.33;99186.64;1881345;76;28214;-57
2023/03/02 10:56:21;;;;;;;4.47;3.73;;;;;;;19.58;30.36;99182.27;1881649;76;28218;-57
2023/03/02 10:59:32;;;;;;;3.83;3.47;;;;;;;19.57;30.33;99177.33;1881427;76;28194;-58
2023/03/02 11:02:23;;;;;;;4.20;3.63;;;;;;;19.59;30.36;99173.02;1881934;76;28194;-57
2023/03/02 11:05:33;;;;;;;3.92;3.52;;;;;;;19.58;30.36;99182.27;1881788;76;31236;-54
2023/03/02 11:08:24;;;;;;;3.65;3.35;;;;;;;19.57;30.38;99173.77;1879837;76;28253;-57
2023/03/02 11:11:24;;;;;;;4.55;3.67;;;;;;;19.56;30.37;99174.29;1894777;74;31270;-57
2023/03/02 11:14:16;;;;;;;4.22;3.83;;;;;;;19.56;30.35;99168.00;1881670;76;28406;-54
2023/03/02 11:17:19;;;;;;;4.92;3.80;;;;;;;19.57;30.35;99166.96;1881509;76;28206;-57
2023/03/02 11:20:11;;;;;;;4.37;3.92;;;;;;;19.59;30.37;99168.93;1881619;76;28093;-56
2023/03/02 11:23:05;;;;;;;4.50;4.03;;;;;;;19.58;30.36;99161.28;1903630;74;28242;-59
2023/03/02 11:25:57;;;;;;;7.50;4.35;;;;;;;19.59;30.36;99162.12;1881446;76;28127;-62
2023/03/02 11:29:08;;;;;;;4.60;4.05;;;;;;;19.59;30.33;99166.20;1901850;74;28185;-60
2023/03/02 11:32:02;;;;;;;5.45;4.28;;;;;;;19.57;30.34;99160.98;1861064;76;28195;-59
2023/03/02 11:35:02;;;;;;;5.10;4.10;;;;;;;19.55;30.42;99153.57;1898992;74;28257;-56
2023/03/02 11:37:56;;;;;;;4.53;4.00;;;;;;;19.57;30.41;99153.34;1881649;75;28260;-55
2023/03/02 11:40:51;;;;;;;4.92;4.17;;;;;;;19.60;30.35;99151.54;1889132;74;28112;-56
2023/03/02 11:43:39;;;;;;;7.08;4.45;;;;;;;19.60;30.41;99150.17;1888860;74;28284;-57
2023/03/02 11:46:30;;;;;;;4.62;3.75;;;;;;;19.59;30.37;99152.06;1842360;77;28346;-55
2023/03/02 11:49:28;;;;;;;7.47;4.30;;;;;;;19.59;30.39;99156.67;1881335;76;28253;-54
2023/03/02 11:52:25;;;;;;;4.77;4.20;;;;;;;19.58;30.42;99146.84;1890199;74;28094;-54
2023/03/02 11:55:22;;;;;;;7.92;4.60;;;;;;;19.59;30.37;99147.13;1892525;74;28240;-57
2023/03/02 11:58:23;;;;;;;6.45;4.47;;;;;;;19.56;30.42;99144.33;1890749;74;28141;-54
2023/03/02 12:01:14;;;;;;;4.95;4.40;;;;;;;19.59;30.41;99144.41;1881088;76;28308;-57
2023/03/02 12:04:27;;;;;;;8.05;4.60;;;;;;;19.57;30.43;99144.64;1881665;76;28094;-55
2023/03/02 12:07:25;;;;;;;6.45;4.47;;;;;;;19.58;30.38;99140.03;1881458;76;28294;-57
2023/03/02 12:10:32;;;;;;;5.35;4.40;;;;;;;19.58;30.43;99138.67;1881388;76;28740;-56
2023/03/02 12:13:29;;;;;;;6.20;4.80;;;;;;;19.55;30.43;99137.23;1865773;75;28103;-55
2023/03/02 12:16:21;;;;;;;5.53;4.50;;;;;;;19.53;30.45;99135.26;1903499;74;28142;-57
2023/03/02 12:19:32;;;;;;;7.65;4.83;;;;;;;19.57;30.46;99123.38;1881390;76;28176;-53
2023/03/02 12:22:31;;;;;;;6.30;4.40;;;;;;;19.58;30.35;99116.87;1881644;76;28328;-57
2023/03/02 12:25:22;;;;;;;5.33;4.20;;;;;;;19.58;30.40;99112.80;1881567;76;28561;-56
2023/03/02 12:28:13;;;;;;;5.22;4.40;;;;;;;19.58;30.32;99115.52;1903408;74;28466;-56
2023/03/02 12:31:05;;;;;;;5.00;4.27;;;;;;;19.57;30.32;99109.23;1881451;76;28213;-56
2023/03/02 12:33:53;;;;;;;5.28;4.55;;;;;;;19.59;30.34;99106.27;1881713;76;28227;-54
2023/03/02 12:36:44;;;;;;;5.92;4.67;;;;;;;19.60;30.33;99104.70;1881369;76;28209;-56
2023/03/02 12:39:54;;;;;;;4.80;4.30;;;;;;;19.62;30.31;99097.66;1903221;74;28248;-53
2023/03/02 12:43:05;;;;;;;5.37;4.42;;;;;;;19.63;30.29;99093.85;1890986;74;28511;-56
2023/03/02 12:46:05;;;;;;;5.07;4.53;;;;;;;19.59;30.31;99088.03;1883824;74;28076;-55
2023/03/02 12:49:22;;;;;;;5.62;4.40;;;;;;;19.58;30.32;99087.72;1873316;75;28230;-54
2023/03/02 12:52:32;;;;;;;5.00;4.50;;;;;;;19.59;30.31;99076.30;1861191;75;28206;-56
2023/03/02 12:55:20;;;;;;;5.90;4.70;;;;;;;19.57;30.34;99075.70;1868340;76;28187;-55
2023/03/02 12:58:15;;;;;;;4.80;4.33;;;;;;;19.57;30.32;99072.97;1868232;76;28148;-56
2023/03/02 13:01:04;;;;;;;4.87;4.17;;;;;;;19.59;30.30;99068.12;1864824;76;28227;-56
2023/03/02 13:03:54;;;;;;;5.97;4.72;;;;;;;19.60;30.27;99071.17;1868365;75;28544;-55
2023/03/02 13:06:43;;;;;;;5.33;4.47;;;;;;;19.58;30.33;99065.92;1873087;75;28183;-56
2023/03/02 13:09:31;;;;;;;4.77;4.27;;;;;;;19.60;30.28;99066.56;1867267;75;28137;-54
2023/03/02 13:12:20;;;;;;;6.80;4.60;;;;;;;19.63;30.29;99062.52;1868656;76;28258;-55
2023/03/02 13:15:11;;;;;;;5.50;4.22;;;;;;;19.63;30.29;99054.34;1857048;77;28183;-54
2023/03/02 13:18:00;;;;;;;5.62;4.55;;;;;;;19.64;30.22;99059.59;1882680;75;28207;-57
2023/03/02 13:20:50;;;;;;;6.33;4.62;;;;;;;19.64;30.26;99057.39;1868811;76;28298;-55
2023/03/02 13:23:47;;;;;;;6.10;4.47;;;;;;;19.62;30.26;99051.34;1856956;77;28209;-55
2023/03/02 13:26:39;;;;;;;7.25;4.20;;;;;;;19.64;30.26;99050.58;1881229;75;28099;-56
2023/03/02 13:29:30;;;;;;;5.15;4.62;;;;;;;19.64;30.28;99045.12;1878406;75;28168;-56